Time;durP1;ratioP1;P1;durP2;ratioP2;P2;SDS_P1;SDS_P2;PMS_P1;PMS_P2;Temp;Humidity;BMP_temperature;BMP_pressure;BME280_temperature;BME280_humidity;BME280_pressure;Samples;Min_cycle;Max_cycle;Signal;HPM_P1;HPM_P2
2022/11/22 00:27:01;;;;;;;66.30;33.20;;;1.30;99.90;;;;;;5910689;23;20743;31
2022/11/22 01:12:33;;;;;;;72.00;35.30;;;1.30;99.90;;;;;;4795041;29;20513;-81
2022/11/22 01:33:26;;;;;;;64.97;34.60;;;1.30;99.90;;;;;;4747723;29;20239;-84
2022/11/22 02:09:03;;;;;;;61.93;31.17;;;1.20;99.90;;;;;;4591356;30;20291;-83
2022/11/22 02:13:24;;;;;;;67.83;32.63;;;1.20;99.90;;;;;;4574158;30;20277;-83
2022/11/22 02:34:25;;;;;;;71.80;32.43;;;1.30;99.90;;;;;;4750627;29;20243;-84
2022/11/22 03:14:15;;;;;;;77.57;33.60;;;1.30;99.90;;;;;;4518643;31;20619;-84
2022/11/22 03:44:41;;;;;;;72.07;31.10;;;1.10;99.90;;;;;;4581724;30;20606;-82
2022/11/22 04:05:29;;;;;;;79.60;33.73;;;1.00;99.90;;;;;;4697780;30;20278;-82
2022/11/22 04:25:57;;;;;;;82.73;32.23;;;1.00;99.90;;;;;;4630027;30;20284;-84
2022/11/22 05:00:44;;;;;;;88.37;34.57;;;1.20;99.90;;;;;;4675813;30;20578;-85
2022/11/22 05:10:58;;;;;;;88.30;35.43;;;1.20;99.90;;;;;;5947548;23;20355;31
2022/11/22 05:36:58;;;;;;;104.23;36.33;;;1.20;99.90;;;;;;4630280;29;20317;-75
2022/11/22 06:42:36;;;;;;;116.93;41.27;;;1.30;99.90;;;;;;4359656;30;20294;-76
2022/11/22 07:12:56;;;;;;;122.27;39.87;;;1.30;99.90;;;;;;4368255;30;20225;-77
2022/11/22 07:38:27;;;;;;;123.57;40.77;;;1.50;99.90;;;;;;4283662;31;20838;-76
2022/11/22 07:59:05;;;;;;;123.70;41.17;;;1.70;99.90;;;;;;4427383;30;21210;-75
2022/11/22 08:03:17;;;;;;;127.83;41.63;;;1.60;99.90;;;;;;4366513;30;20599;-74
2022/11/22 08:23:50;;;;;;;138.53;44.27;;;1.70;99.90;;;;;;4318669;31;21393;-75
2022/11/22 08:44:07;;;;;;;130.23;42.50;;;1.80;99.90;;;;;;4353404;30;20764;-74
2022/11/22 09:14:28;;;;;;;121.97;40.23;;;2.00;99.90;;;;;;4356168;30;21084;-75
2022/11/22 09:40:03;;;;;;;123.47;42.07;;;2.00;99.90;;;;;;4367758;30;20556;-75
2022/11/22 10:00:02;;;;;;;115.93;40.57;;;2.30;99.90;;;;;;4294725;30;20724;-75
2022/11/22 10:26:00;;;;;;;97.57;38.33;;;2.50;99.90;;;;;;4417054;30;20684;-74
2022/11/22 10:55:54;;;;;;;90.53;37.63;;;3.10;99.90;;;;;;4483757;29;20831;-77
2022/11/22 11:21:47;;;;;;;75.10;31.90;;;3.60;98.30;;;;;;4399759;30;20219;-77
2022/11/22 11:26:14;;;;;;;67.53;30.27;;;3.50;97.50;;;;;;4289473;30;21456;-76
2022/11/22 11:51:48;;;;;;;63.10;27.93;;;3.60;95.60;;;;;;4282948;31;20824;-77
2022/11/22 12:22:24;;;;;;;59.50;25.50;;;3.30;96.80;;;;;;4422891;30;20243;-76
2022/11/22 12:58:18;;;;;;;57.23;27.17;;;3.40;96.50;;;;;;4502615;29;20245;-77
2022/11/22 13:02:39;;;;;;;52.07;26.27;;;3.30;96.80;;;;;;4438812;29;20622;-75
2022/11/22 13:28:40;;;;;;;35.40;19.27;;;3.30;96.30;;;;;;4479321;30;20208;-77
2022/11/22 14:28:49;;;;;;;51.23;22.17;;;2.60;99.90;;;;;;4694104;30;20223;-86
2022/11/22 15:14:26;;;;;;;45.77;22.67;;;2.30;99.90;;;;;;4619958;30;20539;-85
2022/11/22 15:49:47;;;;;;;49.83;23.77;;;2.10;99.90;;;;;;4579453;30;21077;-84
2022/11/22 16:05:32;;;;;;;52.83;24.27;;;2.00;99.90;;;;;;5747214;23;20259;-83
2022/11/22 16:25:45;;;;;;;48.80;24.03;;;2.00;99.90;;;;;;4730963;29;20237;-85
2022/11/22 16:51:02;;;;;;;49.73;21.10;;;1.90;99.90;;;;;;4719525;30;20233;-84
2022/11/22 17:11:17;;;;;;;56.13;25.93;;;1.70;99.90;;;;;;4681414;30;20220;-87
2022/11/22 17:46:20;;;;;;;64.43;28.83;;;1.90;99.90;;;;;;4591443;30;20370;-85
2022/11/22 17:51:55;;;;;;;61.97;27.13;;;1.80;99.90;;;;;;5688963;23;20244;-86
2022/11/22 18:22:23;;;;;;;65.03;29.03;;;1.70;99.90;;;;;;4711220;29;20744;-83
2022/11/22 18:52:45;;;;;;;64.40;27.67;;;1.90;99.90;;;;;;4700965;29;21016;-85
2022/11/22 19:17:43;;;;;;;62.50;28.73;;;1.70;99.90;;;;;;5083591;23;20208;31
